sensor_id;sensor_type;location;lat;lon;timestamp;P1;durP1;ratioP1;P2;durP2;ratioP2
17169;SDS011;8700;48.222;16.342;2022-12-18T00:01:58;20.10;;;16.03;;
17169;SDS011;8700;48.222;16.342;2022-12-18T00:05:20;20.10;;;17.20;;
17169;SDS011;8700;48.222;16.342;2022-12-18T00:13:36;14.33;;;12.80;;
17169;SDS011;8700;48.222;16.342;2022-12-18T00:16:59;13.20;;;11.00;;
17169;SDS011;8700;48.222;16.342;2022-12-18T00:20:21;14.67;;;11.60;;
17169;SDS011;8700;48.222;16.342;2022-12-18T00:23:45;13.37;;;12.00;;
17169;SDS011;8700;48.222;16.342;2022-12-18T00:27:07;13.40;;;11.97;;
17169;SDS011;8700;48.222;16.342;2022-12-18T00:30:29;14.83;;;12.17;;
17169;SDS011;8700;48.222;16.342;2022-12-18T00:33:52;15.87;;;13.93;;
17169;SDS011;8700;48.222;16.342;2022-12-18T00:37:15;12.13;;;10.93;;
17169;SDS011;8700;48.222;16.342;2022-12-18T00:40:36;13.20;;;11.30;;
17169;SDS011;8700;48.222;16.342;2022-12-18T00:43:57;12.17;;;10.97;;
17169;SDS011;8700;48.222;16.342;2022-12-18T00:47:17;12.77;;;11.30;;
17169;SDS011;8700;48.222;16.342;2022-12-18T00:50:40;12.80;;;11.50;;
17169;SDS011;8700;48.222;16.342;2022-12-18T00:54:01;11.23;;;10.17;;
17169;SDS011;8700;48.222;16.342;2022-12-18T00:57:24;11.17;;;9.93;;
17169;SDS011;8700;48.222;16.342;2022-12-18T01:00:45;14.00;;;11.77;;
17169;SDS011;8700;48.222;16.342;2022-12-18T01:04:06;10.13;;;9.13;;
17169;SDS011;8700;48.222;16.342;2022-12-18T01:07:29;12.60;;;11.00;;
17169;SDS011;8700;48.222;16.342;2022-12-18T01:10:50;13.70;;;12.17;;
17169;SDS011;8700;48.222;16.342;2022-12-18T01:14:12;15.30;;;13.70;;
17169;SDS011;8700;48.222;16.342;2022-12-18T01:17:39;17.43;;;14.33;;
17169;SDS011;8700;48.222;16.342;2022-12-18T01:21:05;16.77;;;14.27;;
17169;SDS011;8700;48.222;16.342;2022-12-18T01:24:29;21.30;;;15.40;;
17169;SDS011;8700;48.222;16.342;2022-12-18T01:27:54;17.27;;;14.97;;
17169;SDS011;8700;48.222;16.342;2022-12-18T01:31:20;21.33;;;15.17;;
17169;SDS011;8700;48.222;16.342;2022-12-18T01:34:43;20.50;;;16.20;;
17169;SDS011;8700;48.222;16.342;2022-12-18T01:38:05;20.30;;;17.57;;
17169;SDS011;8700;48.222;16.342;2022-12-18T01:41:29;21.53;;;18.13;;
17169;SDS011;8700;48.222;16.342;2022-12-18T01:48:53;22.17;;;17.10;;
17169;SDS011;8700;48.222;16.342;2022-12-18T01:52:17;24.17;;;19.77;;
17169;SDS011;8700;48.222;16.342;2022-12-18T01:55:40;23.47;;;17.27;;
17169;SDS011;8700;48.222;16.342;2022-12-18T01:59:06;24.53;;;17.73;;
17169;SDS011;8700;48.222;16.342;2022-12-18T02:02:30;26.80;;;19.93;;
17169;SDS011;8700;48.222;16.342;2022-12-18T02:05:53;27.03;;;18.53;;
17169;SDS011;8700;48.222;16.342;2022-12-18T02:09:23;26.17;;;19.33;;
17169;SDS011;8700;48.222;16.342;2022-12-18T02:12:53;28.10;;;19.57;;
17169;SDS011;8700;48.222;16.342;2022-12-18T02:16:23;29.40;;;20.73;;
17169;SDS011;8700;48.222;16.342;2022-12-18T02:19:58;28.50;;;21.50;;
17169;SDS011;8700;48.222;16.342;2022-12-18T02:23:35;26.20;;;21.10;;
17169;SDS011;8700;48.222;16.342;2022-12-18T02:27:07;30.57;;;23.40;;
17169;SDS011;8700;48.222;16.342;2022-12-18T02:30:31;30.10;;;19.97;;
17169;SDS011;8700;48.222;16.342;2022-12-18T02:33:54;28.70;;;21.43;;
17169;SDS011;8700;48.222;16.342;2022-12-18T02:37:19;23.60;;;19.67;;
17169;SDS011;8700;48.222;16.342;2022-12-18T02:40:42;27.13;;;21.17;;
17169;SDS011;8700;48.222;16.342;2022-12-18T02:44:08;31.43;;;20.93;;
17169;SDS011;8700;48.222;16.342;2022-12-18T02:47:31;27.07;;;19.90;;
17169;SDS011;8700;48.222;16.342;2022-12-18T02:50:55;27.60;;;20.20;;
17169;SDS011;8700;48.222;16.342;2022-12-18T02:54:27;28.00;;;21.50;;
17169;SDS011;8700;48.222;16.342;2022-12-18T02:58:03;26.87;;;19.27;;
17169;SDS011;8700;48.222;16.342;2022-12-18T03:01:32;25.50;;;19.90;;
17169;SDS011;8700;48.222;16.342;2022-12-18T03:04:57;23.60;;;20.23;;
17169;SDS011;8700;48.222;16.342;2022-12-18T03:08:23;29.27;;;21.17;;
17169;SDS011;8700;48.222;16.342;2022-12-18T03:11:48;38.73;;;26.30;;
17169;SDS011;8700;48.222;16.342;2022-12-18T03:15:34;33.03;;;22.50;;
17169;SDS011;8700;48.222;16.342;2022-12-18T03:19:00;26.93;;;20.93;;
17169;SDS011;8700;48.222;16.342;2022-12-18T03:22:23;26.40;;;19.13;;
17169;SDS011;8700;48.222;16.342;2022-12-18T03:25:48;28.33;;;19.40;;
17169;SDS011;8700;48.222;16.342;2022-12-18T03:29:16;26.37;;;21.83;;
17169;SDS011;8700;48.222;16.342;2022-12-18T03:32:42;24.80;;;19.27;;
17169;SDS011;8700;48.222;16.342;2022-12-18T03:36:10;26.70;;;22.40;;
17169;SDS011;8700;48.222;16.342;2022-12-18T03:39:32;28.37;;;20.37;;
17169;SDS011;8700;48.222;16.342;2022-12-18T03:42:55;29.17;;;21.23;;
17169;SDS011;8700;48.222;16.342;2022-12-18T03:50:52;26.80;;;22.13;;
17169;SDS011;8700;48.222;16.342;2022-12-18T03:54:19;25.93;;;19.53;;
17169;SDS011;8700;48.222;16.342;2022-12-18T03:57:41;28.47;;;21.07;;
17169;SDS011;8700;48.222;16.342;2022-12-18T04:01:03;26.80;;;20.10;;
17169;SDS011;8700;48.222;16.342;2022-12-18T04:04:27;30.90;;;23.13;;
17169;SDS011;8700;48.222;16.342;2022-12-18T04:07:50;29.93;;;21.83;;
17169;SDS011;8700;48.222;16.342;2022-12-18T04:11:15;32.77;;;25.20;;
17169;SDS011;8700;48.222;16.342;2022-12-18T04:14:42;28.60;;;22.40;;
17169;SDS011;8700;48.222;16.342;2022-12-18T04:18:03;31.50;;;21.97;;
17169;SDS011;8700;48.222;16.342;2022-12-18T04:21:25;28.37;;;23.27;;
17169;SDS011;8700;48.222;16.342;2022-12-18T04:24:47;25.83;;;18.73;;
17169;SDS011;8700;48.222;16.342;2022-12-18T04:28:10;27.27;;;20.40;;
17169;SDS011;8700;48.222;16.342;2022-12-18T04:31:31;22.60;;;19.07;;
17169;SDS011;8700;48.222;16.342;2022-12-18T04:34:53;23.77;;;18.83;;
17169;SDS011;8700;48.222;16.342;2022-12-18T04:38:14;27.53;;;21.87;;
17169;SDS011;8700;48.222;16.342;2022-12-18T04:41:35;28.40;;;20.87;;
17169;SDS011;8700;48.222;16.342;2022-12-18T04:44:58;25.87;;;20.40;;
17169;SDS011;8700;48.222;16.342;2022-12-18T04:48:20;27.17;;;20.77;;
17169;SDS011;8700;48.222;16.342;2022-12-18T04:51:41;26.73;;;20.53;;
17169;SDS011;8700;48.222;16.342;2022-12-18T04:55:02;28.17;;;19.73;;
17169;SDS011;8700;48.222;16.342;2022-12-18T04:58:24;27.73;;;21.10;;
17169;SDS011;8700;48.222;16.342;2022-12-18T05:01:46;23.63;;;19.43;;
17169;SDS011;8700;48.222;16.342;2022-12-18T05:05:08;27.03;;;20.70;;
17169;SDS011;8700;48.222;16.342;2022-12-18T05:08:29;27.20;;;21.53;;
17169;SDS011;8700;48.222;16.342;2022-12-18T05:11:51;27.37;;;20.93;;
17169;SDS011;8700;48.222;16.342;2022-12-18T05:15:13;28.53;;;21.57;;
17169;SDS011;8700;48.222;16.342;2022-12-18T05:18:36;31.13;;;21.73;;
17169;SDS011;8700;48.222;16.342;2022-12-18T05:21:57;26.10;;;20.83;;
17169;SDS011;8700;48.222;16.342;2022-12-18T05:25:19;31.40;;;22.37;;
17169;SDS011;8700;48.222;16.342;2022-12-18T05:28:40;29.77;;;22.23;;
17169;SDS011;8700;48.222;16.342;2022-12-18T05:32:02;27.70;;;22.20;;
17169;SDS011;8700;48.222;16.342;2022-12-18T05:35:24;27.93;;;21.67;;
17169;SDS011;8700;48.222;16.342;2022-12-18T05:38:46;25.93;;;20.13;;
17169;SDS011;8700;48.222;16.342;2022-12-18T05:42:08;29.00;;;20.83;;
17169;SDS011;8700;48.222;16.342;2022-12-18T05:45:36;28.80;;;22.13;;
17169;SDS011;8700;48.222;16.342;2022-12-18T05:48:59;29.87;;;22.33;;
17169;SDS011;8700;48.222;16.342;2022-12-18T05:52:23;30.40;;;23.10;;
17169;SDS011;8700;48.222;16.342;2022-12-18T05:55:45;30.33;;;23.73;;
17169;SDS011;8700;48.222;16.342;2022-12-18T05:59:06;35.47;;;24.37;;
17169;SDS011;8700;48.222;16.342;2022-12-18T06:02:27;30.17;;;23.03;;
17169;SDS011;8700;48.222;16.342;2022-12-18T06:05:49;30.97;;;21.73;;
17169;SDS011;8700;48.222;16.342;2022-12-18T06:09:11;29.63;;;23.57;;
17169;SDS011;8700;48.222;16.342;2022-12-18T06:12:32;31.70;;;23.50;;
17169;SDS011;8700;48.222;16.342;2022-12-18T06:15:53;32.47;;;23.57;;
17169;SDS011;8700;48.222;16.342;2022-12-18T06:19:15;32.27;;;21.87;;
17169;SDS011;8700;48.222;16.342;2022-12-18T06:22:36;25.80;;;20.93;;
17169;SDS011;8700;48.222;16.342;2022-12-18T06:26:02;30.20;;;23.07;;
17169;SDS011;8700;48.222;16.342;2022-12-18T06:29:24;29.23;;;23.63;;
17169;SDS011;8700;48.222;16.342;2022-12-18T06:32:47;34.60;;;24.30;;
17169;SDS011;8700;48.222;16.342;2022-12-18T06:36:10;32.73;;;23.63;;
17169;SDS011;8700;48.222;16.342;2022-12-18T06:39:34;30.73;;;23.73;;
17169;SDS011;8700;48.222;16.342;2022-12-18T06:42:56;31.80;;;24.23;;
17169;SDS011;8700;48.222;16.342;2022-12-18T06:46:18;34.93;;;25.17;;
17169;SDS011;8700;48.222;16.342;2022-12-18T06:49:39;33.20;;;24.10;;
17169;SDS011;8700;48.222;16.342;2022-12-18T06:53:01;31.27;;;23.30;;
17169;SDS011;8700;48.222;16.342;2022-12-18T06:56:22;36.17;;;25.67;;
17169;SDS011;8700;48.222;16.342;2022-12-18T06:59:45;35.30;;;26.77;;
17169;SDS011;8700;48.222;16.342;2022-12-18T07:03:06;31.97;;;25.00;;
17169;SDS011;8700;48.222;16.342;2022-12-18T07:06:27;34.23;;;24.50;;
17169;SDS011;8700;48.222;16.342;2022-12-18T07:09:49;41.40;;;31.17;;
17169;SDS011;8700;48.222;16.342;2022-12-18T07:13:10;36.37;;;25.90;;
17169;SDS011;8700;48.222;16.342;2022-12-18T07:16:33;34.73;;;25.97;;
17169;SDS011;8700;48.222;16.342;2022-12-18T07:19:55;40.30;;;27.47;;
17169;SDS011;8700;48.222;16.342;2022-12-18T07:23:16;36.20;;;26.30;;
17169;SDS011;8700;48.222;16.342;2022-12-18T07:26:38;37.23;;;24.97;;
17169;SDS011;8700;48.222;16.342;2022-12-18T07:29:59;39.97;;;28.33;;
17169;SDS011;8700;48.222;16.342;2022-12-18T07:33:21;36.70;;;24.87;;
17169;SDS011;8700;48.222;16.342;2022-12-18T07:36:42;34.97;;;25.27;;
17169;SDS011;8700;48.222;16.342;2022-12-18T07:40:04;35.20;;;26.87;;
17169;SDS011;8700;48.222;16.342;2022-12-18T07:43:26;38.13;;;28.73;;
17169;SDS011;8700;48.222;16.342;2022-12-18T07:46:47;36.93;;;25.63;;
17169;SDS011;8700;48.222;16.342;2022-12-18T07:50:10;39.33;;;29.23;;
17169;SDS011;8700;48.222;16.342;2022-12-18T07:53:33;39.47;;;29.93;;
17169;SDS011;8700;48.222;16.342;2022-12-18T07:56:55;40.67;;;30.57;;
17169;SDS011;8700;48.222;16.342;2022-12-18T08:00:17;38.90;;;28.27;;
17169;SDS011;8700;48.222;16.342;2022-12-18T08:03:38;79.10;;;51.67;;
17169;SDS011;8700;48.222;16.342;2022-12-18T08:07:02;42.53;;;31.93;;
17169;SDS011;8700;48.222;16.342;2022-12-18T08:10:23;38.37;;;30.83;;
17169;SDS011;8700;48.222;16.342;2022-12-18T08:13:44;41.07;;;29.43;;
17169;SDS011;8700;48.222;16.342;2022-12-18T08:17:05;39.53;;;28.97;;
17169;SDS011;8700;48.222;16.342;2022-12-18T08:20:27;36.13;;;27.93;;
17169;SDS011;8700;48.222;16.342;2022-12-18T08:23:49;37.67;;;27.07;;
17169;SDS011;8700;48.222;16.342;2022-12-18T08:27:11;37.93;;;28.37;;
17169;SDS011;8700;48.222;16.342;2022-12-18T08:30:32;37.37;;;27.00;;
17169;SDS011;8700;48.222;16.342;2022-12-18T08:33:54;35.57;;;28.17;;
17169;SDS011;8700;48.222;16.342;2022-12-18T08:37:17;39.37;;;29.47;;
17169;SDS011;8700;48.222;16.342;2022-12-18T08:40:39;41.67;;;27.80;;
17169;SDS011;8700;48.222;16.342;2022-12-18T08:44:00;39.70;;;29.87;;
17169;SDS011;8700;48.222;16.342;2022-12-18T08:47:40;39.67;;;31.00;;
17169;SDS011;8700;48.222;16.342;2022-12-18T08:51:02;39.60;;;29.70;;
17169;SDS011;8700;48.222;16.342;2022-12-18T08:54:23;38.97;;;30.43;;
17169;SDS011;8700;48.222;16.342;2022-12-18T08:57:48;35.43;;;28.27;;
17169;SDS011;8700;48.222;16.342;2022-12-18T09:01:10;44.80;;;30.77;;
17169;SDS011;8700;48.222;16.342;2022-12-18T09:04:32;40.47;;;29.33;;
17169;SDS011;8700;48.222;16.342;2022-12-18T09:07:54;41.70;;;31.70;;
17169;SDS011;8700;48.222;16.342;2022-12-18T09:11:19;39.80;;;30.33;;
17169;SDS011;8700;48.222;16.342;2022-12-18T09:14:43;41.47;;;30.30;;
17169;SDS011;8700;48.222;16.342;2022-12-18T09:18:05;41.53;;;32.13;;
17169;SDS011;8700;48.222;16.342;2022-12-18T09:21:27;52.67;;;36.87;;
17169;SDS011;8700;48.222;16.342;2022-12-18T09:24:49;52.23;;;38.53;;
17169;SDS011;8700;48.222;16.342;2022-12-18T09:28:11;45.50;;;33.93;;
17169;SDS011;8700;48.222;16.342;2022-12-18T09:31:35;46.27;;;32.87;;
17169;SDS011;8700;48.222;16.342;2022-12-18T09:35:00;48.80;;;35.40;;
17169;SDS011;8700;48.222;16.342;2022-12-18T09:38:21;49.20;;;36.20;;
17169;SDS011;8700;48.222;16.342;2022-12-18T09:41:44;46.37;;;35.13;;
17169;SDS011;8700;48.222;16.342;2022-12-18T09:45:11;44.60;;;35.30;;
17169;SDS011;8700;48.222;16.342;2022-12-18T09:53:21;49.13;;;33.90;;
17169;SDS011;8700;48.222;16.342;2022-12-18T09:56:47;50.10;;;34.50;;
17169;SDS011;8700;48.222;16.342;2022-12-18T10:04:43;44.73;;;32.80;;
17169;SDS011;8700;48.222;16.342;2022-12-18T10:08:07;40.57;;;29.33;;
17169;SDS011;8700;48.222;16.342;2022-12-18T10:11:37;39.83;;;28.53;;
17169;SDS011;8700;48.222;16.342;2022-12-18T10:15:04;39.97;;;27.10;;
17169;SDS011;8700;48.222;16.342;2022-12-18T10:18:38;38.77;;;26.77;;
17169;SDS011;8700;48.222;16.342;2022-12-18T10:26:31;42.23;;;29.17;;
17169;SDS011;8700;48.222;16.342;2022-12-18T10:29:54;48.00;;;32.97;;
17169;SDS011;8700;48.222;16.342;2022-12-18T10:33:17;38.20;;;27.07;;
17169;SDS011;8700;48.222;16.342;2022-12-18T10:36:40;42.40;;;27.17;;
17169;SDS011;8700;48.222;16.342;2022-12-18T10:40:06;49.20;;;32.00;;
17169;SDS011;8700;48.222;16.342;2022-12-18T10:43:30;41.67;;;31.63;;
17169;SDS011;8700;48.222;16.342;2022-12-18T10:46:55;43.67;;;29.80;;
17169;SDS011;8700;48.222;16.342;2022-12-18T10:50:25;46.37;;;30.53;;
17169;SDS011;8700;48.222;16.342;2022-12-18T10:53:51;37.20;;;25.67;;
17169;SDS011;8700;48.222;16.342;2022-12-18T10:57:17;39.93;;;27.30;;
17169;SDS011;8700;48.222;16.342;2022-12-18T11:01:04;36.50;;;26.87;;
17169;SDS011;8700;48.222;16.342;2022-12-18T11:04:29;41.97;;;28.77;;
17169;SDS011;8700;48.222;16.342;2022-12-18T11:07:52;30.07;;;20.30;;
17169;SDS011;8700;48.222;16.342;2022-12-18T11:11:15;41.20;;;28.07;;
17169;SDS011;8700;48.222;16.342;2022-12-18T11:14:42;44.23;;;28.80;;
17169;SDS011;8700;48.222;16.342;2022-12-18T11:18:13;40.70;;;26.53;;
17169;SDS011;8700;48.222;16.342;2022-12-18T11:21:40;39.37;;;28.73;;
17169;SDS011;8700;48.222;16.342;2022-12-18T11:25:03;42.17;;;30.37;;
17169;SDS011;8700;48.222;16.342;2022-12-18T11:28:28;41.60;;;31.77;;
17169;SDS011;8700;48.222;16.342;2022-12-18T11:35:51;49.63;;;31.73;;
17169;SDS011;8700;48.222;16.342;2022-12-18T11:39:17;43.70;;;32.63;;
17169;SDS011;8700;48.222;16.342;2022-12-18T11:47:15;44.87;;;32.17;;
17169;SDS011;8700;48.222;16.342;2022-12-18T11:55:10;49.00;;;32.30;;
17169;SDS011;8700;48.222;16.342;2022-12-18T11:58:42;46.60;;;33.47;;
17169;SDS011;8700;48.222;16.342;2022-12-18T12:02:12;47.37;;;26.97;;
17169;SDS011;8700;48.222;16.342;2022-12-18T12:05:47;42.60;;;29.23;;
17169;SDS011;8700;48.222;16.342;2022-12-18T12:09:17;45.77;;;31.33;;
17169;SDS011;8700;48.222;16.342;2022-12-18T12:12:48;50.03;;;32.53;;
17169;SDS011;8700;48.222;16.342;2022-12-18T12:16:21;42.67;;;31.13;;
17169;SDS011;8700;48.222;16.342;2022-12-18T12:19:47;49.23;;;30.83;;
17169;SDS011;8700;48.222;16.342;2022-12-18T12:23:13;49.73;;;33.20;;
17169;SDS011;8700;48.222;16.342;2022-12-18T12:26:42;44.90;;;33.07;;
17169;SDS011;8700;48.222;16.342;2022-12-18T12:30:16;48.60;;;31.27;;
17169;SDS011;8700;48.222;16.342;2022-12-18T12:33:42;48.17;;;29.73;;
17169;SDS011;8700;48.222;16.342;2022-12-18T12:37:15;44.40;;;30.47;;
17169;SDS011;8700;48.222;16.342;2022-12-18T12:45:06;45.17;;;28.40;;
17169;SDS011;8700;48.222;16.342;2022-12-18T12:48:38;45.57;;;32.73;;
17169;SDS011;8700;48.222;16.342;2022-12-18T12:52:04;45.73;;;33.03;;
17169;SDS011;8700;48.222;16.342;2022-12-18T13:00:01;67.57;;;43.60;;
17169;SDS011;8700;48.222;16.342;2022-12-18T13:03:31;74.70;;;46.83;;
17169;SDS011;8700;48.222;16.342;2022-12-18T13:07:10;45.40;;;30.97;;
17169;SDS011;8700;48.222;16.342;2022-12-18T13:10:37;45.67;;;30.30;;
17169;SDS011;8700;48.222;16.342;2022-12-18T13:14:00;46.87;;;35.40;;
17169;SDS011;8700;48.222;16.342;2022-12-18T13:17:26;47.83;;;27.27;;
17169;SDS011;8700;48.222;16.342;2022-12-18T13:21:02;54.67;;;33.27;;
17169;SDS011;8700;48.222;16.342;2022-12-18T13:24:31;50.17;;;33.33;;
17169;SDS011;8700;48.222;16.342;2022-12-18T13:28:04;46.57;;;32.73;;
17169;SDS011;8700;48.222;16.342;2022-12-18T13:35:38;48.27;;;32.07;;
17169;SDS011;8700;48.222;16.342;2022-12-18T13:39:24;52.77;;;36.57;;
17169;SDS011;8700;48.222;16.342;2022-12-18T13:42:52;48.87;;;30.37;;
17169;SDS011;8700;48.222;16.342;2022-12-18T13:46:41;41.23;;;28.73;;
17169;SDS011;8700;48.222;16.342;2022-12-18T13:50:09;56.70;;;35.73;;
17169;SDS011;8700;48.222;16.342;2022-12-18T13:53:39;52.00;;;35.63;;
17169;SDS011;8700;48.222;16.342;2022-12-18T13:57:24;43.90;;;26.67;;
17169;SDS011;8700;48.222;16.342;2022-12-18T14:00:47;49.00;;;34.10;;
17169;SDS011;8700;48.222;16.342;2022-12-18T14:04:08;51.47;;;36.40;;
17169;SDS011;8700;48.222;16.342;2022-12-18T14:07:30;47.63;;;33.13;;
17169;SDS011;8700;48.222;16.342;2022-12-18T14:10:53;50.57;;;35.47;;
17169;SDS011;8700;48.222;16.342;2022-12-18T14:14:17;50.77;;;35.03;;
17169;SDS011;8700;48.222;16.342;2022-12-18T14:17:39;57.67;;;37.57;;
17169;SDS011;8700;48.222;16.342;2022-12-18T14:25:36;51.23;;;32.40;;
17169;SDS011;8700;48.222;16.342;2022-12-18T14:28:57;62.33;;;40.83;;
17169;SDS011;8700;48.222;16.342;2022-12-18T14:32:22;57.80;;;35.60;;
17169;SDS011;8700;48.222;16.342;2022-12-18T14:35:51;50.23;;;38.00;;
17169;SDS011;8700;48.222;16.342;2022-12-18T14:39:16;65.63;;;39.40;;
17169;SDS011;8700;48.222;16.342;2022-12-18T14:42:38;48.97;;;31.47;;
17169;SDS011;8700;48.222;16.342;2022-12-18T14:45:59;64.17;;;37.90;;
17169;SDS011;8700;48.222;16.342;2022-12-18T14:49:24;59.27;;;36.43;;
17169;SDS011;8700;48.222;16.342;2022-12-18T14:52:49;64.53;;;39.50;;
17169;SDS011;8700;48.222;16.342;2022-12-18T14:56:21;56.70;;;37.17;;
17169;SDS011;8700;48.222;16.342;2022-12-18T14:59:44;52.37;;;33.40;;
17169;SDS011;8700;48.222;16.342;2022-12-18T15:03:05;64.10;;;40.03;;
17169;SDS011;8700;48.222;16.342;2022-12-18T15:06:31;51.30;;;32.63;;
17169;SDS011;8700;48.222;16.342;2022-12-18T15:10:01;58.37;;;35.13;;
17169;SDS011;8700;48.222;16.342;2022-12-18T15:13:24;52.67;;;32.13;;
17169;SDS011;8700;48.222;16.342;2022-12-18T15:16:49;61.43;;;36.33;;
17169;SDS011;8700;48.222;16.342;2022-12-18T15:20:14;54.37;;;37.03;;
17169;SDS011;8700;48.222;16.342;2022-12-18T15:23:45;50.87;;;36.23;;
17169;SDS011;8700;48.222;16.342;2022-12-18T15:27:18;63.73;;;38.47;;
17169;SDS011;8700;48.222;16.342;2022-12-18T15:30:57;54.00;;;32.43;;
17169;SDS011;8700;48.222;16.342;2022-12-18T15:34:21;61.77;;;37.37;;
17169;SDS011;8700;48.222;16.342;2022-12-18T15:37:44;59.87;;;37.30;;
17169;SDS011;8700;48.222;16.342;2022-12-18T15:41:10;53.97;;;31.67;;
17169;SDS011;8700;48.222;16.342;2022-12-18T15:44:33;55.03;;;34.87;;
17169;SDS011;8700;48.222;16.342;2022-12-18T15:47:55;50.67;;;31.33;;
17169;SDS011;8700;48.222;16.342;2022-12-18T15:56:07;57.47;;;33.13;;
17169;SDS011;8700;48.222;16.342;2022-12-18T15:59:50;63.70;;;37.87;;
17169;SDS011;8700;48.222;16.342;2022-12-18T16:03:13;51.27;;;31.77;;
17169;SDS011;8700;48.222;16.342;2022-12-18T16:06:34;58.40;;;32.50;;
17169;SDS011;8700;48.222;16.342;2022-12-18T16:09:55;55.43;;;35.83;;
17169;SDS011;8700;48.222;16.342;2022-12-18T16:13:18;61.60;;;37.50;;
17169;SDS011;8700;48.222;16.342;2022-12-18T16:16:40;54.73;;;36.77;;
17169;SDS011;8700;48.222;16.342;2022-12-18T16:20:02;44.97;;;28.27;;
17169;SDS011;8700;48.222;16.342;2022-12-18T16:23:26;61.13;;;36.00;;
17169;SDS011;8700;48.222;16.342;2022-12-18T16:26:48;54.20;;;36.77;;
17169;SDS011;8700;48.222;16.342;2022-12-18T16:30:13;42.57;;;27.93;;
17169;SDS011;8700;48.222;16.342;2022-12-18T16:33:35;63.53;;;37.77;;
17169;SDS011;8700;48.222;16.342;2022-12-18T16:36:57;86.70;;;49.23;;
17169;SDS011;8700;48.222;16.342;2022-12-18T16:40:20;49.93;;;29.07;;
17169;SDS011;8700;48.222;16.342;2022-12-18T16:43:41;58.20;;;38.73;;
17169;SDS011;8700;48.222;16.342;2022-12-18T16:47:06;54.23;;;36.10;;
17169;SDS011;8700;48.222;16.342;2022-12-18T16:50:31;47.13;;;33.13;;
17169;SDS011;8700;48.222;16.342;2022-12-18T16:53:53;50.47;;;34.27;;
17169;SDS011;8700;48.222;16.342;2022-12-18T16:57:17;52.10;;;33.43;;
17169;SDS011;8700;48.222;16.342;2022-12-18T17:00:48;49.73;;;33.10;;
17169;SDS011;8700;48.222;16.342;2022-12-18T17:04:11;51.17;;;35.60;;
17169;SDS011;8700;48.222;16.342;2022-12-18T17:07:35;46.17;;;29.17;;
17169;SDS011;8700;48.222;16.342;2022-12-18T17:11:00;52.50;;;36.17;;
17169;SDS011;8700;48.222;16.342;2022-12-18T17:14:33;50.33;;;35.50;;
17169;SDS011;8700;48.222;16.342;2022-12-18T17:17:56;53.93;;;33.23;;
17169;SDS011;8700;48.222;16.342;2022-12-18T17:21:24;49.23;;;33.20;;
17169;SDS011;8700;48.222;16.342;2022-12-18T17:24:46;48.83;;;34.40;;
17169;SDS011;8700;48.222;16.342;2022-12-18T17:28:09;48.57;;;34.73;;
17169;SDS011;8700;48.222;16.342;2022-12-18T17:31:32;42.70;;;31.53;;
17169;SDS011;8700;48.222;16.342;2022-12-18T17:34:55;40.40;;;26.13;;
17169;SDS011;8700;48.222;16.342;2022-12-18T17:38:18;50.70;;;34.17;;
17169;SDS011;8700;48.222;16.342;2022-12-18T17:41:40;52.13;;;34.80;;
17169;SDS011;8700;48.222;16.342;2022-12-18T17:45:02;47.43;;;30.57;;
17169;SDS011;8700;48.222;16.342;2022-12-18T17:48:27;46.70;;;32.30;;
17169;SDS011;8700;48.222;16.342;2022-12-18T17:51:50;36.53;;;22.67;;
17169;SDS011;8700;48.222;16.342;2022-12-18T17:55:14;42.77;;;30.90;;
17169;SDS011;8700;48.222;16.342;2022-12-18T17:58:35;46.53;;;34.07;;
17169;SDS011;8700;48.222;16.342;2022-12-18T18:06:46;51.60;;;31.67;;
17169;SDS011;8700;48.222;16.342;2022-12-18T18:10:08;53.70;;;34.83;;
17169;SDS011;8700;48.222;16.342;2022-12-18T18:13:30;47.50;;;33.37;;
17169;SDS011;8700;48.222;16.342;2022-12-18T18:17:09;33.30;;;24.60;;
17169;SDS011;8700;48.222;16.342;2022-12-18T18:20:30;51.63;;;34.83;;
17169;SDS011;8700;48.222;16.342;2022-12-18T18:23:52;50.00;;;31.10;;
17169;SDS011;8700;48.222;16.342;2022-12-18T18:27:13;42.87;;;27.07;;
17169;SDS011;8700;48.222;16.342;2022-12-18T18:30:36;55.77;;;38.23;;
17169;SDS011;8700;48.222;16.342;2022-12-18T18:33:57;49.57;;;31.47;;
17169;SDS011;8700;48.222;16.342;2022-12-18T18:37:19;60.30;;;36.67;;
17169;SDS011;8700;48.222;16.342;2022-12-18T18:40:40;42.67;;;25.77;;
17169;SDS011;8700;48.222;16.342;2022-12-18T18:44:01;55.67;;;38.13;;
17169;SDS011;8700;48.222;16.342;2022-12-18T18:47:24;51.00;;;35.40;;
17169;SDS011;8700;48.222;16.342;2022-12-18T18:50:54;52.33;;;34.90;;
17169;SDS011;8700;48.222;16.342;2022-12-18T18:54:15;41.20;;;27.97;;
17169;SDS011;8700;48.222;16.342;2022-12-18T18:57:37;36.10;;;28.60;;
17169;SDS011;8700;48.222;16.342;2022-12-18T19:01:03;38.97;;;26.60;;
17169;SDS011;8700;48.222;16.342;2022-12-18T19:04:29;38.77;;;26.53;;
17169;SDS011;8700;48.222;16.342;2022-12-18T19:07:50;41.37;;;27.03;;
17169;SDS011;8700;48.222;16.342;2022-12-18T19:11:12;37.23;;;28.10;;
17169;SDS011;8700;48.222;16.342;2022-12-18T19:15:02;41.47;;;29.10;;
17169;SDS011;8700;48.222;16.342;2022-12-18T19:18:24;37.90;;;25.83;;
17169;SDS011;8700;48.222;16.342;2022-12-18T19:21:47;40.57;;;29.70;;
17169;SDS011;8700;48.222;16.342;2022-12-18T19:25:09;38.30;;;28.90;;
17169;SDS011;8700;48.222;16.342;2022-12-18T19:28:33;38.07;;;26.50;;
17169;SDS011;8700;48.222;16.342;2022-12-18T19:31:59;37.47;;;27.93;;
17169;SDS011;8700;48.222;16.342;2022-12-18T19:35:21;39.13;;;29.43;;
17169;SDS011;8700;48.222;16.342;2022-12-18T19:38:44;40.93;;;30.97;;
17169;SDS011;8700;48.222;16.342;2022-12-18T19:42:06;41.90;;;30.80;;
17169;SDS011;8700;48.222;16.342;2022-12-18T19:45:27;37.10;;;29.37;;
17169;SDS011;8700;48.222;16.342;2022-12-18T19:48:48;41.27;;;29.20;;
17169;SDS011;8700;48.222;16.342;2022-12-18T19:52:10;45.07;;;31.07;;
17169;SDS011;8700;48.222;16.342;2022-12-18T19:55:34;40.03;;;28.50;;
17169;SDS011;8700;48.222;16.342;2022-12-18T19:59:00;47.10;;;31.00;;
17169;SDS011;8700;48.222;16.342;2022-12-18T20:02:23;41.87;;;30.03;;
17169;SDS011;8700;48.222;16.342;2022-12-18T20:05:44;41.60;;;29.30;;
17169;SDS011;8700;48.222;16.342;2022-12-18T20:09:06;45.93;;;33.53;;
17169;SDS011;8700;48.222;16.342;2022-12-18T20:12:28;46.80;;;32.63;;
17169;SDS011;8700;48.222;16.342;2022-12-18T20:15:50;45.50;;;32.97;;
17169;SDS011;8700;48.222;16.342;2022-12-18T20:19:12;44.90;;;32.37;;
17169;SDS011;8700;48.222;16.342;2022-12-18T20:22:33;44.70;;;31.10;;
17169;SDS011;8700;48.222;16.342;2022-12-18T20:25:55;42.07;;;30.77;;
17169;SDS011;8700;48.222;16.342;2022-12-18T20:29:18;41.70;;;30.97;;
17169;SDS011;8700;48.222;16.342;2022-12-18T20:32:39;46.23;;;31.60;;
17169;SDS011;8700;48.222;16.342;2022-12-18T20:36:01;43.00;;;33.43;;
17169;SDS011;8700;48.222;16.342;2022-12-18T20:39:24;45.13;;;32.60;;
17169;SDS011;8700;48.222;16.342;2022-12-18T20:42:46;46.23;;;32.23;;
17169;SDS011;8700;48.222;16.342;2022-12-18T20:46:09;44.00;;;32.00;;
17169;SDS011;8700;48.222;16.342;2022-12-18T20:49:32;41.90;;;30.70;;
17169;SDS011;8700;48.222;16.342;2022-12-18T20:52:53;44.63;;;33.53;;
17169;SDS011;8700;48.222;16.342;2022-12-18T20:56:15;44.10;;;33.27;;
17169;SDS011;8700;48.222;16.342;2022-12-18T20:59:41;44.90;;;34.20;;
17169;SDS011;8700;48.222;16.342;2022-12-18T21:03:04;47.33;;;33.73;;